CheckWX is a tool to help pilots better visualize weather data.  It is not intended as a substitute for an official pre-flight weather briefing.

09:39:01 UTC

RKSG TAF
A 511 Airport
South Korea
TAF RKSG 141100Z 1411/1517 01006KT 9999 FEW015 BKN030 OVC050 QNH2964INS BECMG 1416/1417 03006KT 6000 BR FEW015 BKN025 OVC040 QNH2966INS BECMG 1423/1424 34006KT 9000 HZ BKN040 BKN120 QNH2965INS BECMG 1510/1511 VRB06KT 9000 HZ FEW035 QNH2967INS BECMG 1516/1517 15006KT 4800 BR BKN010 QNH2972INS TX29/1506Z TN15/1420Z

Jul-14@
11:00 UTC

Jul-14 @ 11:00 UTC

Jul-14@
16:00 UTC

Jul-14 @ 16:00 UTC

TAF RKSG 141100Z 1411/1517 01006KT 9999 FEW015 BKN030 OVC050 QNH2964INS

Expired

Wind
  • 010° at 6 KTS
Cloud Levels
  • Few at 1,500' AGL
  • Broken at 3,000' AGL
  • Overcast at 5,000' AGL

Jul-14@
16:00 UTC

Jul-14 @ 16:00 UTC

Jul-14@
23:00 UTC

Jul-14 @ 23:00 UTC

BECMG 1416/1417 03006KT 6000 BR FEW015 BKN025 OVC040 QNH2966INS

Expired

Wind
  • 030° at 6 KTS
Conditions
Mist
Cloud Levels
  • Few at 1,500' AGL
  • Broken at 2,500' AGL
  • Overcast at 4,000' AGL

Jul-14@
23:00 UTC

Jul-14 @ 23:00 UTC

Jul-15@
10:00 UTC

Jul-15 @ 10:00 UTC

BECMG 1423/1424 34006KT 9000 HZ BKN040 BKN120 QNH2965INS

Becoming

Becoming Conditions expected by Wed, Jul 15, 2020 @ 00:00 UTC

Wind
  • 340° at 6 KTS
Conditions
Haze
Cloud Levels
  • Broken at 4,000' AGL
  • Broken at 12,000' AGL

Jul-15@
10:00 UTC

Jul-15 @ 10:00 UTC

Jul-15@
16:00 UTC

Jul-15 @ 16:00 UTC

BECMG 1510/1511 VRB06KT 9000 HZ FEW035 QNH2967INS

Becoming

Becoming Conditions expected by Wed, Jul 15, 2020 @ 11:00 UTC

Wind
  • Variable at 6 KTS
Conditions
Haze
Cloud Levels
  • Few at 3,500' AGL

Jul-15@
16:00 UTC

Jul-15 @ 16:00 UTC

Jul-15@
17:00 UTC

Jul-15 @ 17:00 UTC

BECMG 1516/1517 15006KT 4800 BR BKN010 QNH2972INS TX29/1506Z TN15/1420Z

Becoming

Becoming Conditions expected by Wed, Jul 15, 2020 @ 17:00 UTC

Wind
  • 150° at 6 KTS
Conditions
Mist
Cloud Levels
  • Broken at 1,000' AGL